Terminal Aerodrome Forecast
Issued by NWS Bismarck, ND

Home | Current Version | Previous Version | Graphics & Text | Print | Product List | Glossary On
Versions: 1 2 3 4 5 6 7 8 9 10 11 12 13 14 15 16 17 18 19 20 21 22 23 24
811
FTUS43 KBIS 050421 AAA
TAFISN
TAF AMD
KISN 050421Z 0504/0524 32004KT P6SM BKN060
     FM050800 28008KT P6SM VCSH BKN025
     FM051200 28011G19KT 4SM -SN BR OVC010
     FM051600 31018G28KT 3SM -SN BLSN BR OVC008=

USA.gov is the U.S. government's official web portal to all federal, state and local government web resources and services.